createdAt,value
2022-10-23T00:01:28.156Z,14.30
2022-10-23T00:04:03.098Z,14.30
2022-10-23T00:06:35.672Z,14.30
2022-10-23T00:09:05.039Z,14.20
2022-10-23T00:11:32.593Z,14.20
2022-10-23T00:14:02.279Z,14.30
2022-10-23T00:16:29.978Z,14.20
2022-10-23T00:18:57.375Z,14.20
2022-10-23T00:21:25.319Z,14.20
2022-10-23T00:23:52.927Z,14.20
2022-10-23T00:26:20.394Z,14.20
2022-10-23T00:28:50.342Z,14.20
2022-10-23T00:31:18.959Z,14.20
2022-10-23T00:33:46.407Z,14.20
2022-10-23T00:36:15.682Z,14.20
2022-10-23T00:38:45.282Z,14.30
2022-10-23T00:41:22.212Z,14.40
2022-10-23T00:44:18.201Z,14.40
2022-10-23T00:46:46.184Z,14.40
2022-10-23T00:49:14.393Z,14.40
2022-10-23T00:51:48.639Z,14.50
2022-10-23T00:54:23.946Z,14.40
2022-10-23T00:56:56.043Z,14.40
2022-10-23T00:59:24.076Z,14.50
2022-10-23T01:01:51.871Z,14.60
2022-10-23T01:04:19.852Z,14.60
2022-10-23T01:06:47.019Z,14.70
2022-10-23T01:09:55.725Z,14.70
2022-10-23T01:12:34.603Z,14.70
2022-10-23T01:15:08.065Z,14.70
2022-10-23T01:17:51.471Z,14.70
2022-10-23T01:20:27.741Z,14.70
2022-10-23T01:23:17.274Z,14.60
2022-10-23T01:25:54.163Z,14.60
2022-10-23T01:28:28.347Z,14.50
2022-10-23T01:30:59.539Z,14.40
2022-10-23T01:33:47.290Z,14.50
2022-10-23T01:36:23.751Z,14.40
2022-10-23T01:39:14.937Z,14.40
2022-10-23T01:41:57.698Z,14.50
2022-10-23T01:44:50.642Z,14.50
2022-10-23T01:47:25.779Z,14.50
2022-10-23T01:50:00.956Z,14.40
2022-10-23T01:52:28.351Z,14.50
2022-10-23T01:55:00.150Z,14.50
2022-10-23T01:57:31.141Z,14.50
2022-10-23T02:00:03.808Z,14.50
2022-10-23T02:02:33.873Z,14.40
2022-10-23T02:05:11.219Z,14.40
2022-10-23T02:07:38.544Z,14.40
2022-10-23T02:10:08.043Z,14.50
2022-10-23T02:12:56.106Z,14.40
2022-10-23T02:15:28.672Z,14.40
2022-10-23T02:18:37.154Z,14.40
2022-10-23T02:21:14.115Z,14.40
2022-10-23T02:23:52.536Z,14.40
2022-10-23T02:26:28.790Z,14.40
2022-10-23T02:31:37.189Z,13.70
2022-10-23T02:34:04.627Z,14.20
2022-10-23T02:36:31.994Z,14.20
2022-10-23T02:38:59.941Z,14.20
2022-10-23T02:41:37.239Z,14.20
2022-10-23T02:44:34.917Z,14.10
2022-10-23T02:47:26.439Z,14.10
2022-10-23T02:50:00.132Z,14.00
2022-10-23T02:52:52.995Z,14.00
2022-10-23T02:55:39.874Z,14.00
2022-10-23T02:58:24.219Z,14.00
2022-10-23T03:00:59.802Z,14.00
2022-10-23T03:03:32.326Z,14.00
2022-10-23T03:05:59.716Z,14.00
2022-10-23T03:08:26.906Z,14.00
2022-10-23T03:10:54.108Z,14.00
2022-10-23T03:13:23.505Z,14.00
2022-10-23T03:15:50.740Z,13.90
2022-10-23T03:18:17.859Z,13.90
2022-10-23T03:20:48.267Z,13.90
2022-10-23T03:23:15.384Z,14.40
2022-10-23T03:25:43.169Z,13.90
2022-10-23T03:28:11.324Z,13.90
2022-10-23T03:30:38.706Z,13.90
2022-10-23T03:33:05.899Z,13.90
2022-10-23T03:35:35.687Z,13.80
2022-10-23T03:38:03.281Z,13.80
2022-10-23T03:40:30.497Z,13.90
2022-10-23T03:42:57.864Z,13.80
2022-10-23T03:45:25.076Z,13.90
2022-10-23T03:47:52.342Z,13.80
2022-10-23T03:50:20.716Z,13.80
2022-10-23T03:52:48.271Z,13.80
2022-10-23T03:55:15.684Z,13.80
2022-10-23T03:57:42.941Z,13.80
2022-10-23T04:00:10.915Z,13.80
2022-10-23T04:02:44.575Z,13.80
2022-10-23T04:05:12.363Z,13.80
2022-10-23T04:07:41.491Z,13.80
2022-10-23T04:10:09.117Z,13.80
2022-10-23T04:12:36.494Z,13.80
2022-10-23T04:15:04.288Z,13.80
2022-10-23T04:17:31.420Z,13.80
2022-10-23T04:19:59.126Z,13.80
2022-10-23T04:22:28.427Z,13.80
2022-10-23T04:24:56.298Z,13.80
2022-10-23T04:27:23.501Z,13.80
2022-10-23T04:29:53.250Z,13.90
2022-10-23T04:32:22.806Z,13.90
2022-10-23T04:34:49.940Z,13.90
2022-10-23T04:37:17.153Z,13.90
2022-10-23T04:39:44.970Z,13.90
2022-10-23T04:42:14.295Z,13.90
2022-10-23T04:44:41.562Z,13.90
2022-10-23T04:47:08.702Z,14.00
2022-10-23T04:49:44.206Z,14.00
2022-10-23T04:52:19.939Z,14.10
2022-10-23T04:55:13.469Z,14.10
2022-10-23T04:57:52.567Z,14.10
2022-10-23T05:00:23.943Z,14.10
2022-10-23T05:02:54.058Z,14.10
2022-10-23T05:05:22.167Z,14.20
2022-10-23T05:08:24.087Z,12.90
2022-10-23T05:11:09.607Z,14.20
2022-10-23T05:13:42.561Z,14.20
2022-10-23T05:16:09.929Z,14.30
2022-10-23T05:18:45.357Z,14.30
2022-10-23T05:21:21.928Z,14.40
2022-10-23T05:23:50.891Z,14.40
2022-10-23T05:26:18.430Z,14.40
2022-10-23T05:28:48.159Z,14.40
2022-10-23T05:31:19.603Z,14.40
2022-10-23T05:33:50.957Z,14.30
2022-10-23T05:36:21.217Z,14.30
2022-10-23T05:38:52.200Z,14.30
2022-10-23T05:41:21.192Z,14.30
2022-10-23T05:43:48.578Z,14.30
2022-10-23T05:46:34.489Z,14.20
2022-10-23T05:49:13.179Z,14.20
2022-10-23T05:51:55.577Z,14.20
2022-10-23T05:54:45.057Z,14.20
2022-10-23T05:57:42.970Z,14.20
2022-10-23T06:00:13.003Z,14.20
2022-10-23T06:02:43.243Z,14.20
2022-10-23T06:05:36.851Z,14.20
2022-10-23T06:08:24.346Z,14.30
2022-10-23T06:10:51.818Z,14.30
2022-10-23T06:13:19.307Z,14.40
2022-10-23T06:15:46.947Z,14.40
2022-10-23T06:18:19.098Z,14.40
2022-10-23T06:20:55.470Z,14.40
2022-10-23T06:23:25.798Z,14.50
2022-10-23T06:26:16.553Z,14.50
2022-10-23T06:28:56.162Z,14.60
2022-10-23T06:31:27.829Z,14.60
2022-10-23T06:33:58.354Z,14.60
2022-10-23T06:36:26.417Z,14.60
2022-10-23T06:41:53.589Z,14.70
2022-10-23T06:44:50.262Z,14.70
2022-10-23T06:47:28.247Z,14.80
2022-10-23T06:50:33.646Z,14.80
2022-10-23T06:53:06.266Z,14.90
2022-10-23T06:55:35.510Z,14.90
2022-10-23T06:58:04.518Z,15.00
2022-10-23T07:00:31.792Z,15.00
2022-10-23T07:02:58.946Z,15.10
2022-10-23T07:05:26.124Z,15.20
2022-10-23T07:07:53.350Z,15.30
2022-10-23T07:10:25.630Z,15.30
2022-10-23T07:13:00.735Z,15.40
2022-10-23T07:15:40.457Z,15.50
2022-10-23T07:18:14.476Z,15.50
2022-10-23T07:21:00.327Z,15.60
2022-10-23T07:23:29.128Z,15.60
2022-10-23T07:25:56.297Z,15.70
2022-10-23T07:28:23.887Z,15.70
2022-10-23T07:30:58.709Z,15.80
2022-10-23T07:33:30.658Z,15.90
2022-10-23T07:36:07.934Z,16.00
2022-10-23T07:38:35.647Z,16.00
2022-10-23T07:41:03.100Z,16.00
2022-10-23T07:45:59.851Z,16.00
2022-10-23T07:48:33.524Z,16.10
2022-10-23T07:51:08.074Z,16.20
2022-10-23T07:53:38.674Z,16.20
2022-10-23T07:56:15.896Z,16.20
2022-10-23T07:59:05.921Z,16.30
2022-10-23T08:01:36.850Z,16.40
2022-10-23T08:04:05.139Z,16.40
2022-10-23T08:06:33.248Z,16.50
2022-10-23T08:09:03.729Z,16.50
2022-10-23T08:11:35.544Z,16.50
2022-10-23T08:14:08.247Z,16.60
2022-10-23T08:16:37.867Z,16.60
2022-10-23T08:19:16.812Z,16.60
2022-10-23T08:21:45.710Z,16.70
2022-10-23T08:24:14.217Z,16.70
2022-10-23T08:26:43.920Z,16.80
2022-10-23T08:29:12.573Z,16.80
2022-10-23T08:31:40.455Z,16.80
2022-10-23T08:34:31.215Z,16.80
2022-10-23T08:36:59.534Z,16.90
2022-10-23T08:39:26.769Z,16.90
2022-10-23T08:42:24.911Z,16.90
2022-10-23T08:45:11.894Z,16.80
2022-10-23T08:47:48.879Z,16.90
2022-10-23T08:50:49.298Z,17.00
2022-10-23T08:53:27.259Z,17.00
2022-10-23T08:56:03.397Z,17.00
2022-10-23T08:58:53.683Z,17.00
2022-10-23T09:01:45.596Z,17.00
2022-10-23T09:04:14.322Z,17.00
2022-10-23T09:06:54.454Z,17.00
2022-10-23T09:09:36.694Z,17.00
2022-10-23T09:12:17.483Z,17.10
2022-10-23T09:15:02.969Z,17.10
2022-10-23T09:17:36.007Z,17.10
2022-10-23T09:20:24.268Z,17.20
2022-10-23T09:23:07.631Z,17.30
2022-10-23T09:25:39.203Z,17.40
2022-10-23T09:28:06.432Z,17.40
2022-10-23T09:30:38.493Z,17.50
2022-10-23T09:33:18.884Z,17.60
2022-10-23T09:36:07.297Z,17.80
2022-10-23T09:38:36.812Z,17.90
2022-10-23T09:41:11.227Z,18.00
2022-10-23T09:43:38.362Z,18.10
2022-10-23T09:46:07.930Z,18.10
2022-10-23T09:48:37.453Z,18.20
2022-10-23T09:51:17.376Z,18.20
2022-10-23T09:53:52.654Z,18.10
2022-10-23T09:56:31.349Z,18.10
2022-10-23T09:59:05.877Z,18.10
2022-10-23T10:01:38.422Z,18.00
2022-10-23T10:04:38.020Z,17.90
2022-10-23T10:07:17.494Z,17.90
2022-10-23T10:09:44.713Z,17.90
2022-10-23T10:12:19.746Z,17.90
2022-10-23T10:15:03.556Z,18.00
2022-10-23T10:17:47.901Z,18.00
2022-10-23T10:20:24.299Z,18.00
2022-10-23T10:23:12.757Z,18.00
2022-10-23T10:26:04.893Z,18.00
2022-10-23T10:29:08.459Z,17.90
2022-10-23T10:32:13.131Z,17.90
2022-10-23T10:35:04.384Z,17.90
2022-10-23T10:38:15.926Z,18.10
2022-10-23T10:40:59.114Z,18.10
2022-10-23T10:43:54.943Z,18.10
2022-10-23T10:46:38.256Z,18.10
2022-10-23T10:49:19.793Z,18.10
2022-10-23T10:52:16.506Z,18.10
2022-10-23T10:54:58.793Z,18.10
2022-10-23T10:58:01.129Z,18.20
2022-10-23T11:00:31.377Z,18.20
2022-10-23T11:03:04.463Z,18.40
2022-10-23T11:05:33.162Z,18.60
2022-10-23T11:08:29.152Z,18.80
2022-10-23T11:11:03.703Z,18.80
2022-10-23T11:13:35.557Z,18.90
2022-10-23T11:16:27.380Z,19.00
2022-10-23T11:19:09.933Z,19.40
2022-10-23T11:21:50.389Z,19.60
2022-10-23T11:24:52.375Z,19.90
2022-10-23T11:27:45.753Z,20.00
2022-10-23T11:30:29.453Z,20.00
2022-10-23T11:33:30.952Z,20.10
2022-10-23T11:36:07.272Z,20.40
2022-10-23T11:38:38.873Z,20.50
2022-10-23T11:41:19.962Z,20.70
2022-10-23T11:43:55.329Z,20.90
2022-10-23T11:46:25.484Z,21.10
2022-10-23T11:48:54.471Z,21.40
2022-10-23T11:51:32.247Z,21.70
2022-10-23T11:54:08.138Z,21.70
2022-10-23T11:56:36.220Z,21.50
2022-10-23T11:59:29.514Z,21.30
2022-10-23T12:02:00.638Z,21.10
2022-10-23T12:04:49.151Z,21.00
2022-10-23T12:07:38.325Z,21.00
2022-10-23T12:10:23.687Z,20.90
2022-10-23T12:13:00.594Z,20.80
2022-10-23T12:15:28.621Z,20.90
2022-10-23T12:18:10.409Z,21.00
2022-10-23T12:21:01.103Z,21.20
2022-10-23T12:23:40.445Z,21.10
2022-10-23T12:26:26.702Z,20.90
2022-10-23T12:29:02.366Z,20.80
2022-10-23T12:31:55.097Z,20.70
2022-10-23T12:34:25.245Z,20.70
2022-10-23T12:37:10.901Z,20.80
2022-10-23T12:39:39.178Z,20.80
2022-10-23T12:42:26.207Z,20.80
2022-10-23T12:45:02.318Z,20.80
2022-10-23T12:47:30.429Z,20.70
2022-10-23T12:49:57.670Z,20.50
2022-10-23T12:52:25.236Z,20.50
2022-10-23T12:54:52.529Z,20.50
2022-10-23T12:57:28.865Z,20.40
2022-10-23T13:00:04.461Z,20.40
2022-10-23T13:02:32.630Z,20.40
2022-10-23T13:05:06.709Z,20.40
2022-10-23T13:07:42.728Z,20.40
2022-10-23T13:10:15.575Z,20.50
2022-10-23T13:13:02.851Z,20.50
2022-10-23T13:15:40.074Z,20.60
2022-10-23T13:18:08.629Z,21.10
2022-10-23T13:20:42.502Z,21.60
2022-10-23T13:23:24.347Z,22.00
2022-10-23T13:25:55.605Z,22.40
2022-10-23T13:28:33.124Z,22.60
2022-10-23T13:31:03.762Z,22.80
2022-10-23T13:33:34.840Z,22.60
2022-10-23T13:36:05.962Z,22.30
2022-10-23T13:38:38.203Z,22.40
2022-10-23T13:41:13.542Z,22.50
2022-10-23T13:43:41.671Z,22.90
2022-10-23T13:46:19.780Z,23.00
2022-10-23T13:48:47.811Z,23.10
2022-10-23T13:51:23.760Z,22.80
2022-10-23T13:53:53.374Z,22.80
2022-10-23T13:56:22.513Z,22.90
2022-10-23T13:58:50.253Z,22.90
2022-10-23T14:01:36.826Z,23.00
2022-10-23T14:04:04.981Z,23.20
2022-10-23T14:06:33.052Z,23.50
2022-10-23T14:09:00.222Z,23.40
2022-10-23T14:11:27.435Z,23.30
2022-10-23T14:13:54.559Z,23.10
2022-10-23T14:16:22.086Z,23.20
2022-10-23T14:18:49.752Z,23.30
2022-10-23T14:21:22.274Z,23.30
2022-10-23T14:23:51.976Z,23.30
2022-10-23T14:26:25.166Z,22.90
2022-10-23T14:28:54.127Z,22.40
2022-10-23T14:31:21.949Z,22.10
2022-10-23T14:33:54.704Z,21.90
2022-10-23T14:36:22.298Z,21.70
2022-10-23T14:38:54.816Z,21.60
2022-10-23T14:41:23.159Z,21.30
2022-10-23T14:43:50.334Z,21.00
2022-10-23T14:46:22.662Z,20.90
2022-10-23T14:48:52.790Z,20.80
2022-10-23T14:51:27.395Z,20.80
2022-10-23T14:54:06.070Z,20.70
2022-10-23T14:56:36.382Z,20.70
2022-10-23T14:59:06.401Z,20.60
2022-10-23T15:01:37.844Z,20.50
2022-10-23T15:04:07.030Z,20.40
2022-10-23T15:06:36.056Z,20.40
2022-10-23T15:09:04.556Z,20.30
2022-10-23T15:11:31.821Z,20.30
2022-10-23T15:14:00.242Z,20.20
2022-10-23T15:16:27.899Z,20.00
2022-10-23T15:18:55.006Z,19.90
2022-10-23T15:21:22.503Z,19.80
2022-10-23T15:23:50.121Z,19.80
2022-10-23T15:26:23.786Z,19.70
2022-10-23T15:28:59.145Z,19.60
2022-10-23T15:31:29.006Z,19.60
2022-10-23T15:33:57.306Z,19.60
2022-10-23T15:36:24.811Z,19.50
2022-10-23T15:38:52.181Z,19.50
2022-10-23T15:41:30.602Z,19.50
2022-10-23T15:44:02.163Z,19.40
2022-10-23T15:46:29.517Z,19.40
2022-10-23T15:48:56.670Z,19.40
2022-10-23T15:51:23.969Z,19.30
2022-10-23T15:53:51.169Z,19.20
2022-10-23T15:56:18.374Z,19.20
2022-10-23T15:58:45.817Z,19.20
2022-10-23T16:01:13.102Z,19.20
2022-10-23T16:03:40.488Z,19.30
2022-10-23T16:06:10.570Z,19.30
2022-10-23T16:08:38.647Z,19.30
2022-10-23T16:11:20.223Z,19.30
2022-10-23T16:13:47.617Z,19.30
2022-10-23T16:16:14.869Z,19.20
2022-10-23T16:18:43.592Z,19.20
2022-10-23T16:21:25.851Z,19.10
2022-10-23T16:23:55.263Z,19.10
2022-10-23T16:26:23.039Z,19.00
2022-10-23T16:28:58.351Z,19.00
2022-10-23T16:31:26.582Z,19.00
2022-10-23T16:33:54.383Z,19.00
2022-10-23T16:36:22.436Z,19.00
2022-10-23T16:39:15.716Z,19.00
2022-10-23T16:42:01.659Z,19.00
2022-10-23T16:44:41.924Z,18.90
2022-10-23T16:47:09.230Z,18.90
2022-10-23T16:49:36.377Z,18.90
2022-10-23T16:52:03.577Z,18.90
2022-10-23T16:54:30.757Z,18.90
2022-10-23T16:56:58.573Z,18.90
2022-10-23T16:59:25.799Z,18.80
2022-10-23T17:01:53.391Z,18.80
2022-10-23T17:04:20.664Z,18.80
2022-10-23T17:06:47.816Z,18.70
2022-10-23T17:09:15.228Z,18.70
2022-10-23T17:11:46.990Z,18.60
2022-10-23T17:14:17.417Z,18.60
2022-10-23T17:16:46.306Z,18.60
2022-10-23T17:19:39.714Z,18.60
2022-10-23T17:22:02.347Z,18.60
2022-10-23T17:24:29.492Z,18.60
2022-10-23T17:26:56.858Z,18.50
2022-10-23T17:29:23.961Z,18.50
2022-10-23T17:31:51.703Z,18.50
2022-10-23T17:34:21.419Z,18.50
2022-10-23T17:36:51.049Z,18.50
2022-10-23T17:39:22.392Z,18.50
2022-10-23T17:41:49.640Z,18.60
2022-10-23T17:44:16.966Z,18.50
2022-10-23T17:46:44.285Z,18.50
2022-10-23T17:49:12.491Z,18.60
2022-10-23T17:51:40.606Z,18.60
2022-10-23T17:54:10.712Z,18.70
2022-10-23T17:56:38.736Z,18.70
2022-10-23T17:59:09.559Z,18.80
2022-10-23T18:01:36.918Z,18.80
2022-10-23T18:04:06.442Z,18.80
2022-10-23T18:06:36.910Z,18.80
2022-10-23T18:09:05.287Z,18.80
2022-10-23T18:11:35.338Z,18.80
2022-10-23T18:14:03.226Z,18.80
2022-10-23T18:16:30.490Z,18.80
2022-10-23T18:19:00.581Z,18.80
2022-10-23T18:21:28.600Z,18.80
2022-10-23T18:23:58.144Z,18.80
2022-10-23T18:26:27.795Z,18.80
2022-10-23T18:28:58.252Z,18.80
2022-10-23T18:31:27.643Z,18.80
2022-10-23T18:33:59.580Z,18.80
2022-10-23T18:36:29.503Z,18.90
2022-10-23T18:38:56.797Z,18.90
2022-10-23T18:41:24.286Z,18.90
2022-10-23T18:43:51.962Z,18.90
2022-10-23T18:46:20.493Z,18.90
2022-10-23T18:48:48.377Z,18.90
2022-10-23T18:51:21.531Z,18.90
2022-10-23T18:53:49.442Z,18.90
2022-10-23T18:56:22.827Z,18.60
2022-10-23T18:58:50.767Z,18.30
2022-10-23T19:01:18.783Z,17.80
2022-10-23T19:03:46.681Z,17.60
2022-10-23T19:06:14.459Z,17.50
2022-10-23T19:08:43.399Z,17.40
2022-10-23T19:11:11.831Z,17.40
2022-10-23T19:13:39.592Z,17.40
2022-10-23T19:16:11.066Z,17.40
2022-10-23T19:18:40.517Z,17.30
2022-10-23T19:21:08.100Z,17.30
2022-10-23T19:23:37.123Z,17.20
2022-10-23T19:26:11.883Z,17.20
2022-10-23T19:28:45.789Z,17.20
2022-10-23T19:31:13.478Z,17.10
2022-10-23T19:33:41.299Z,17.10
2022-10-23T19:36:12.677Z,17.00
2022-10-23T19:38:42.261Z,16.80
2022-10-23T19:41:09.509Z,16.60
2022-10-23T19:43:37.793Z,16.50
2022-10-23T19:46:09.388Z,16.30
2022-10-23T19:48:44.131Z,16.20
2022-10-23T19:51:13.134Z,16.10
2022-10-23T19:53:41.819Z,16.00
2022-10-23T19:56:12.918Z,16.00
2022-10-23T19:58:40.697Z,16.10
2022-10-23T20:01:13.406Z,16.10
2022-10-23T20:03:42.148Z,16.10
2022-10-23T20:06:14.429Z,16.00
2022-10-23T20:08:42.083Z,16.00
2022-10-23T20:11:10.094Z,16.00
2022-10-23T20:13:37.322Z,15.90
2022-10-23T20:16:04.671Z,15.90
2022-10-23T20:18:31.828Z,15.90
2022-10-23T20:21:02.457Z,15.90
2022-10-23T20:23:29.659Z,15.80
2022-10-23T20:26:07.850Z,15.80
2022-10-23T20:28:35.306Z,15.70
2022-10-23T20:31:10.788Z,15.70
2022-10-23T20:33:39.322Z,15.60
2022-10-23T20:36:09.337Z,15.60
2022-10-23T20:38:36.773Z,15.50
2022-10-23T20:41:05.660Z,15.50
2022-10-23T20:43:33.862Z,15.50
2022-10-23T20:46:06.223Z,15.50
2022-10-23T20:48:43.862Z,15.50
2022-10-23T20:51:13.807Z,15.40
2022-10-23T20:53:41.882Z,15.40
2022-10-23T20:56:13.158Z,15.40
2022-10-23T20:58:40.486Z,15.40
2022-10-23T21:01:14.599Z,15.40
2022-10-23T21:03:42.211Z,15.40
2022-10-23T21:06:12.416Z,15.40
2022-10-23T21:08:40.474Z,15.40
2022-10-23T21:11:11.842Z,15.40
2022-10-23T21:13:39.155Z,15.40
2022-10-23T21:16:16.881Z,15.40
2022-10-23T21:18:46.663Z,15.40
2022-10-23T21:21:17.378Z,15.40
2022-10-23T21:23:46.051Z,15.50
2022-10-23T21:26:14.014Z,15.60
2022-10-23T21:28:50.740Z,15.80
2022-10-23T21:31:28.517Z,15.80
2022-10-23T21:33:55.804Z,16.00
2022-10-23T21:36:24.049Z,16.00
2022-10-23T21:38:54.019Z,16.00
2022-10-23T21:41:24.502Z,16.20
2022-10-23T21:43:56.432Z,16.30
2022-10-23T21:46:25.205Z,16.30
2022-10-23T21:48:52.845Z,16.40
2022-10-23T21:51:35.182Z,16.40
2022-10-23T21:54:03.423Z,16.40
2022-10-23T21:56:47.809Z,16.50
2022-10-23T21:59:17.934Z,16.40
2022-10-23T22:01:47.091Z,16.40
2022-10-23T22:04:17.044Z,16.40
2022-10-23T22:06:45.052Z,16.40
2022-10-23T22:09:16.171Z,16.40
2022-10-23T22:11:43.339Z,16.30
2022-10-23T22:14:10.929Z,16.30
2022-10-23T22:16:38.121Z,16.30
2022-10-23T22:19:05.260Z,16.30
2022-10-23T22:21:32.461Z,16.20
2022-10-23T22:24:01.090Z,16.20
2022-10-23T22:26:40.200Z,16.20
2022-10-23T22:29:10.785Z,16.30
2022-10-23T22:31:39.056Z,16.30
2022-10-23T22:34:25.047Z,16.30
2022-10-23T22:36:54.817Z,16.30
2022-10-23T22:39:22.766Z,16.40
2022-10-23T22:41:50.389Z,16.50
2022-10-23T22:44:17.895Z,16.50
2022-10-23T22:46:45.312Z,16.50
2022-10-23T22:49:12.586Z,16.60
2022-10-23T22:51:40.083Z,16.60
2022-10-23T22:54:07.533Z,16.60
2022-10-23T22:56:34.920Z,16.80
2022-10-23T22:59:02.659Z,16.80
2022-10-23T23:01:33.645Z,16.90
2022-10-23T23:04:08.882Z,17.00
2022-10-23T23:06:48.297Z,17.00
2022-10-23T23:09:18.056Z,17.10
2022-10-23T23:11:52.155Z,17.10
2022-10-23T23:14:24.077Z,17.00
2022-10-23T23:16:54.567Z,17.00
2022-10-23T23:19:22.869Z,17.00
2022-10-23T23:21:51.147Z,16.90
2022-10-23T23:24:18.388Z,16.90
2022-10-23T23:26:45.517Z,16.80
2022-10-23T23:29:13.022Z,16.80
2022-10-23T23:31:40.504Z,16.90
2022-10-23T23:34:07.653Z,16.90
2022-10-23T23:36:35.228Z,16.90
2022-10-23T23:41:37.777Z,17.00
2022-10-23T23:44:05.096Z,17.00
2022-10-23T23:46:32.403Z,17.00
2022-10-23T23:48:59.590Z,17.00
2022-10-23T23:51:26.719Z,17.00
2022-10-23T23:53:54.037Z,17.00
2022-10-23T23:56:21.403Z,16.90
2022-10-23T23:58:48.823Z,17.00
